Date,TemperatureHighF,TemperatureAvgF,TemperatureLowF,DewpointHighF,DewpointAvgF,DewpointLowF,HumidityHigh,HumidityAvg,HumidityLow,PressureMaxIn,PressureMinIn,WindSpeedMaxMPH,WindSpeedAvgMPH,GustSpeedMaxMPH,PrecipitationSumIn
2013-3-1,54.8,44.7,35.6,40.2,33.6,30.7,83,66,43,29.91,29.81,9,4,16,0.00
2013-3-2,50.9,42.3,34.8,34.7,32.2,28.3,88,69,47,29.91,29.80,8,4,15,0.00
2013-3-3,47.7,39.5,31.2,32.2,27.5,23.2,81,64,43,29.97,29.85,10,6,28,0.00
2013-3-4,50.3,38.6,29.3,31.8,23.7,18.6,75,57,30,30.13,29.97,13,6,22,0.00
2013-3-5,57.9,49.9,39.4,51.8,40.6,24.2,90,71,52,30.14,29.66,6,3,13,0.09
2013-3-6,57.8,49.0,42.9,54.0,36.7,26.5,90,64,43,29.96,29.53,23,15,41,0.00
2013-3-7,55.3,45.0,35.1,35.7,32.9,30.5,84,64,44,30.19,29.95,15,7,24,0.00
2013-3-8,55.8,44.3,33.4,32.4,30.5,28.1,84,61,37,30.24,30.10,15,7,26,0.00
2013-3-9,62.5,48.6,37.2,46.6,36.3,30.4,88,65,39,30.30,30.22,10,5,18,0.00
2013-3-10,55.5,49.0,40.8,48.8,42.2,34.4,91,78,53,30.33,30.25,9,3,13,0.00
2013-3-11,59.6,54.1,47.3,54.6,50.7,44.8,92,88,82,30.26,29.97,12,5,16,0.00
2013-3-12,60.4,57.6,55.5,58.3,55.0,53.1,93,91,87,29.97,29.77,14,4,18,1.41
2013-3-13,61.3,53.4,43.3,56.3,37.8,29.1,92,58,30,30.06,29.87,12,6,22,0.00
2013-3-14,52.7,43.6,33.7,33.7,26.1,21.0,66,51,33,30.24,30.06,14,7,25,0.00
2013-3-15,55.4,47.2,34.7,46.6,34.3,21.5,79,62,32,30.22,29.96,8,4,20,0.00
2013-3-16,72.7,59.9,53.5,53.8,49.6,44.1,82,70,43,29.96,29.73,11,6,20,0.00
2013-3-17,61.1,54.9,48.7,52.6,49.6,44.4,89,82,65,30.11,29.85,15,7,23,0.00
2013-3-18,58.8,52.2,47.8,53.2,48.4,43.5,92,87,79,30.12,29.88,9,4,18,0.00
2013-3-19,69.4,57.8,52.6,55.8,51.1,37.8,93,80,43,29.97,29.73,11,5,19,0.40
2013-3-20,55.9,50.6,44.4,40.7,28.7,17.0,84,44,25,30.11,29.81,9,4,16,0.00
2013-3-21,52.6,44.6,36.7,39.9,29.0,18.9,88,58,29,29.96,29.69,13,6,28,0.00
2013-3-22,49.2,39.9,29.3,36.4,24.4,15.4,71,54,30,30.11,29.96,9,4,20,0.00
2013-3-23,54.4,47.4,39.9,43.1,36.9,30.2,86,67,42,30.06,29.92,5,3,9,0.00
2013-3-24,54.4,47.2,43.9,52.4,43.0,38.9,93,86,67,29.94,29.54,25,8,37,0.71
2013-3-25,51.7,48.5,43.7,40.4,34.3,31.0,70,58,48,29.83,29.61,17,9,28,0.00
2013-3-26,49.1,43.5,35.1,34.8,30.8,27.8,75,61,46,30.10,29.83,11,7,21,0.00
2013-3-27,55.5,45.3,35.0,33.7,29.7,26.2,80,57,33,30.20,30.10,12,7,25,0.00
2013-3-28,56.7,45.7,33.6,37.7,29.5,26.8,78,55,33,30.24,30.13,12,6,23,0.00
2013-3-29,54.6,47.5,35.9,43.6,34.4,28.0,79,61,37,30.32,30.19,11,4,17,0.00
2013-3-30,59.2,52.9,47.4,51.4,46.2,40.3,85,78,67,30.24,30.12,12,3,19,0.00
2013-3-31,62.0,57.3,53.4,56.1,52.7,48.4,89,85,77,30.12,29.85,10,4,19,0.06